Robris — LJXX — position and weather

sailwx.info

Track history (hours):
 
Tides and Currents Weather Stations Pressure Air Temp Water Temp Dewpoint Dewpoint Depression Visibility Wind Speed Wind Dir Waves Ship Positions

Robris

Last reported at 2017-Oct-18 04:00 UTC. Time now 2017-Oct-18 04:07 UTC.
Position N 69°44' E 030°06'.

Length 46 m; draft 5.3 m.

Type: Cargo ship. MMSI: 259631000.

Date/timePositionNaut miles runAvg speedWind from/ knotsBaromVisibWave heightAir tempDewpointWater temp
2017-Oct-18 04:00N 69°44' E 030°06'0 0.0
2017-Oct-18 03:31N 69°44' E 030°06'0 0.0
2017-Oct-18 03:00N 69°44' E 030°06'0 0.0
2017-Oct-18 02:30N 69°44' E 030°06'0 0.0
2017-Oct-18 02:00N 69°44' E 030°06'0 0.0
2017-Oct-18 01:30N 69°44' E 030°06'0 0.0
2017-Oct-18 01:00N 69°44' E 030°06'0 0.0
2017-Oct-18 00:30N 69°44' E 030°06'0 0.0
2017-Oct-18 00:00N 69°44' E 030°06'0 0.0
2017-Oct-17 23:30N 69°44' E 030°06'0 0.0
2017-Oct-17 23:00N 69°44' E 030°06'0 0.0
2017-Oct-17 22:30N 69°44' E 030°06'0 0.0
2017-Oct-17 22:00N 69°44' E 030°06'0 0.0
2017-Oct-17 21:30N 69°44' E 030°06'0 0.0
2017-Oct-17 21:01N 69°44' E 030°06'0 0.0
2017-Oct-17 20:30N 69°44' E 030°06'4 7.2
2017-Oct-17 20:00N 69°48' E 030°06'4 7.8
2017-Oct-17 19:30N 69°51' E 030°02'4 8.0
2017-Oct-17 18:59N 69°55' E 029°58'4 7.5
2017-Oct-17 18:26N 69°58' E 029°49'4 8.1
2017-Oct-17 18:00N 69°59' E 029°40'9 7.8
2017-Oct-17 16:50N 70°01' E 029°13'0 0.7
2017-Oct-17 16:30N 70°01' E 029°13'0 0.0
2017-Oct-17 16:00N 70°01' E 029°13'0 0.0
2017-Oct-17 15:29N 70°01' E 029°13'3 6.2
2017-Oct-17 15:00N 70°02' E 029°21'510.2
2017-Oct-17 14:30N 70°00' E 029°35'5 9.9
2017-Oct-17 14:00N 69°58' E 029°48'5 9.9
2017-Oct-17 13:30N 69°54' E 029°59'4 7.5
2017-Oct-17 13:00N 69°51' E 030°04'0 0.2
2017-Oct-17 12:30N 69°51' E 030°04'3 5.5
2017-Oct-17 12:00N 69°49' E 030°06'5 9.4
2017-Oct-17 11:30N 69°44' E 030°06'0 0.0
2017-Oct-17 11:00N 69°44' E 030°06'0 0.0
2017-Oct-17 10:30N 69°44' E 030°06'0 0.0
2017-Oct-17 10:00N 69°44' E 030°06'0 0.0
2017-Oct-17 09:30N 69°44' E 030°06'0 0.0
2017-Oct-17 09:00N 69°44' E 030°06'0 0.0
2017-Oct-17 08:29N 69°44' E 030°06'0 0.0
2017-Oct-17 08:00N 69°44' E 030°06'0 0.0
2017-Oct-17 07:30N 69°44' E 030°06'0 0.0
2017-Oct-17 07:00N 69°44' E 030°06'0 0.0
2017-Oct-17 06:30N 69°44' E 030°06'0 0.0
2017-Oct-17 06:01N 69°44' E 030°06'0 0.0
2017-Oct-17 05:30N 69°44' E 030°06'0 0.0
2017-Oct-17 05:00N 69°44' E 030°06'0 0.0
2017-Oct-17 04:31N 69°44' E 030°06'0 0.0
2017-Oct-17 03:59N 69°44' E 030°06'0 0.0
2017-Oct-17 03:30N 69°44' E 030°06'0 0.0
2017-Oct-17 03:00N 69°44' E 030°06'0 0.0
2017-Oct-17 02:30N 69°44' E 030°06'0 0.0
2017-Oct-17 02:00N 69°44' E 030°06'0 0.0
2017-Oct-17 01:30N 69°44' E 030°06'0 0.0
2017-Oct-17 01:00N 69°44' E 030°06'0 0.0
2017-Oct-17 00:30N 69°44' E 030°06'0 0.0
2017-Oct-17 00:00N 69°44' E 030°06'0 0.0
2017-Oct-16 23:30N 69°44' E 030°06'0 0.0
2017-Oct-16 23:00N 69°44' E 030°06'0 0.0
2017-Oct-16 22:31N 69°44' E 030°06'0 0.0
2017-Oct-16 22:00N 69°44' E 030°06'0 0.0
2017-Oct-16 21:30N 69°44' E 030°06'0 0.0
2017-Oct-16 21:00N 69°44' E 030°06'0 0.0
2017-Oct-16 20:30N 69°44' E 030°06'0 0.0
2017-Oct-16 20:00N 69°44' E 030°06'0 0.0
2017-Oct-16 19:30N 69°44' E 030°06'4 7.3
2017-Oct-16 18:59N 69°48' E 030°06'4 7.7
2017-Oct-16 18:30N 69°51' E 030°02'4 8.2
2017-Oct-16 18:00N 69°55' E 029°58'4 7.7
2017-Oct-16 17:29N 69°58' E 029°49'4 8.3
2017-Oct-16 17:00N 69°59' E 029°39'5 8.2
2017-Oct-16 16:21N 70°02' E 029°24'4 7.8
2017-Oct-16 15:53N 70°02' E 029°14'0 0.8
2017-Oct-16 15:30N 70°01' E 029°13'0 0.0
2017-Oct-16 14:59N 70°01' E 029°13'3 2.9
2017-Oct-16 14:00N 70°02' E 029°21'510.6
2017-Oct-16 13:30N 70°00' E 029°36'510.4
2017-Oct-16 13:00N 69°58' E 029°49'510.3
2017-Oct-16 12:30N 69°54' E 029°59'510.6
2017-Oct-16 12:00N 69°49' E 030°06'510.5
2017-Oct-16 11:30N 69°44' E 030°06'0 0.5
2017-Oct-16 11:00N 69°44' E 030°06'0 0.0
2017-Oct-16 10:30N 69°44' E 030°06'0 0.0
2017-Oct-16 10:00N 69°44' E 030°06'0 0.0
2017-Oct-16 09:31N 69°44' E 030°06'0 0.0
2017-Oct-16 09:00N 69°44' E 030°06'0 0.0
2017-Oct-16 08:30N 69°44' E 030°06'0 0.0
2017-Oct-16 08:00N 69°44' E 030°06'0 0.0
2017-Oct-16 07:31N 69°44' E 030°06'0 0.0
2017-Oct-16 07:00N 69°44' E 030°06'0 0.0
2017-Oct-16 06:30N 69°44' E 030°06'0 0.0
2017-Oct-16 06:01N 69°44' E 030°06'0 0.0
2017-Oct-16 05:30N 69°44' E 030°06'0 0.0
2017-Oct-16 05:01N 69°44' E 030°06'0 0.0
2017-Oct-16 04:30N 69°44' E 030°06'0 0.0
2017-Oct-16 04:00N 69°44' E 030°06'0 0.0
2017-Oct-16 03:30N 69°44' E 030°06'0 0.0
2017-Oct-16 03:00N 69°44' E 030°06'0 0.0
2017-Oct-16 02:30N 69°44' E 030°06'0 0.0
2017-Oct-16 02:00N 69°44' E 030°06'0 0.0
2017-Oct-16 01:30N 69°44' E 030°06'0 0.0
2017-Oct-16 00:59N 69°44' E 030°06'0 0.0
2017-Oct-16 00:31N 69°44' E 030°06'0 0.0
2017-Oct-16 00:00N 69°44' E 030°06'0 0.0
2017-Oct-15 23:30N 69°44' E 030°06'0 0.0
2017-Oct-15 23:00N 69°44' E 030°06'0 0.0
2017-Oct-15 22:30N 69°44' E 030°06'0 0.0
2017-Oct-15 22:00N 69°44' E 030°06'0 0.0
2017-Oct-15 21:30N 69°44' E 030°06'0 0.0
2017-Oct-15 21:00N 69°44' E 030°06'0 0.0
2017-Oct-15 20:30N 69°44' E 030°06'0 0.0
2017-Oct-15 20:00N 69°44' E 030°06'0 0.0
2017-Oct-15 19:30N 69°44' E 030°06'0 0.2
2017-Oct-15 19:00N 69°44' E 030°06'4 7.4
2017-Oct-15 18:30N 69°48' E 030°06'4 7.4
2017-Oct-15 18:00N 69°51' E 030°03'4 8.0
2017-Oct-15 17:30N 69°55' E 029°58'4 8.2
2017-Oct-15 16:58N 69°58' E 029°48'4 8.5
2017-Oct-15 16:30N 69°60' E 029°38'5 8.5
2017-Oct-15 15:56N 70°01' E 029°26'4 8.0
2017-Oct-15 15:26N 70°02' E 029°14'0 0.7
2017-Oct-15 15:00N 70°01' E 029°13'0 0.0
2017-Oct-15 14:00N 70°01' E 029°13'2 4.6
2017-Oct-15 13:30N 70°02' E 029°19'5 9.6
2017-Oct-15 13:00N 70°04' E 029°32'4 8.4
2017-Oct-15 12:30N 70°04' E 029°45'0 0.0
2017-Oct-15 12:00N 70°04' E 029°45'0 0.0
2017-Oct-15 11:30N 70°04' E 029°45'0 0.0
2017-Oct-15 11:00N 70°04' E 029°45'0 0.0
2017-Oct-15 10:30N 70°04' E 029°45'0 0.0
2017-Oct-15 10:00N 70°04' E 029°45'0 0.0
2017-Oct-15 09:30N 70°04' E 029°45'0 0.0
2017-Oct-15 09:00N 70°04' E 029°45'0 0.0
2017-Oct-15 08:30N 70°04' E 029°45'0 0.0
2017-Oct-15 08:00N 70°04' E 029°45'0 0.0
2017-Oct-15 07:30N 70°04' E 029°45'0 0.0
2017-Oct-15 07:00N 70°04' E 029°45'0 0.0
2017-Oct-15 06:31N 70°04' E 029°45'0 0.0
2017-Oct-15 06:00N 70°04' E 029°45'0 0.0
2017-Oct-15 05:29N 70°04' E 029°45'0 0.0
2017-Oct-15 05:00N 70°04' E 029°45'0 0.0
2017-Oct-15 04:30N 70°04' E 029°45'0 0.0
2017-Oct-15 04:00N 70°04' E 029°45'0 0.0
2017-Oct-15 03:30N 70°04' E 029°45'0 0.0
2017-Oct-15 03:00N 70°04' E 029°45'0 0.0
2017-Oct-15 02:30N 70°04' E 029°45'0 0.0
2017-Oct-15 02:00N 70°04' E 029°45'0 0.0
2017-Oct-15 01:30N 70°04' E 029°45'0 0.0
2017-Oct-15 01:00N 70°04' E 029°45'0 0.0
2017-Oct-15 00:30N 70°04' E 029°45'0 0.0
2017-Oct-15 00:00N 70°04' E 029°45'0 0.0
2017-Oct-14 23:30N 70°04' E 029°45'0 0.0
2017-Oct-14 23:01N 70°04' E 029°45'0 0.0
2017-Oct-14 22:30N 70°04' E 029°45'0 0.0
2017-Oct-14 22:00N 70°04' E 029°45'0 0.0
2017-Oct-14 21:30N 70°04' E 029°45'0 0.0
2017-Oct-14 21:00N 70°04' E 029°45'0 0.0
2017-Oct-14 20:30N 70°04' E 029°45'0 0.0
2017-Oct-14 20:00N 70°04' E 029°45'0 0.0
2017-Oct-14 19:30N 70°04' E 029°45'0 0.0
2017-Oct-14 19:00N 70°04' E 029°45'0 0.0
2017-Oct-14 18:30N 70°04' E 029°45'0 0.0
2017-Oct-14 18:00N 70°04' E 029°45'0 0.0
2017-Oct-14 17:30N 70°04' E 029°45'0 0.0
2017-Oct-14 17:01N 70°04' E 029°45'0 0.0
2017-Oct-14 16:31N 70°04' E 029°45'0 0.0
2017-Oct-14 16:00N 70°04' E 029°45'0 0.0
2017-Oct-14 15:30N 70°04' E 029°45'0 0.0
2017-Oct-14 15:00N 70°04' E 029°45'0 0.1
2017-Oct-14 14:29N 70°04' E 029°45'0 0.0
2017-Oct-14 14:00N 70°04' E 029°45'0 0.0
2017-Oct-14 13:30N 70°04' E 029°45'0 0.0
2017-Oct-14 13:00N 70°04' E 029°45'0 0.0
2017-Oct-14 12:30N 70°04' E 029°45'0 0.0
2017-Oct-14 12:00N 70°04' E 029°45'0 0.0
2017-Oct-14 11:30N 70°04' E 029°45'0 0.0
2017-Oct-14 11:00N 70°04' E 029°45'0 0.0
2017-Oct-14 10:30N 70°04' E 029°45'0 0.0
2017-Oct-14 10:00N 70°04' E 029°45'0 0.0
2017-Oct-14 09:30N 70°04' E 029°45'0 0.0
2017-Oct-14 09:00N 70°04' E 029°45'0 0.0
2017-Oct-14 08:30N 70°04' E 029°45'0 0.0
2017-Oct-14 07:59N 70°04' E 029°45'0 0.0
2017-Oct-14 07:30N 70°04' E 029°45'0 0.0
2017-Oct-14 07:00N 70°04' E 029°45'0 0.0
2017-Oct-14 06:30N 70°04' E 029°45'0 0.0
2017-Oct-14 06:00N 70°04' E 029°45'0 0.0
2017-Oct-14 05:30N 70°04' E 029°45'0 0.0
2017-Oct-14 05:00N 70°04' E 029°45'0 0.0
2017-Oct-14 04:31N 70°04' E 029°45'0 0.0
2017-Oct-14 04:00N 70°04' E 029°45'0 0.0
2017-Oct-14 03:30N 70°04' E 029°45'0 0.0
2017-Oct-14 03:00N 70°04' E 029°45'0 0.0
2017-Oct-14 02:30N 70°04' E 029°45'0 0.0
2017-Oct-14 02:00N 70°04' E 029°45'0 0.0
2017-Oct-14 01:31N 70°04' E 029°45'0 0.0
2017-Oct-14 01:00N 70°04' E 029°45'0 0.0
2017-Oct-14 00:30N 70°04' E 029°45'0 0.0
2017-Oct-14 00:01N 70°04' E 029°45'0 0.0
2017-Oct-13 23:30N 70°04' E 029°45'0 0.0
2017-Oct-13 23:00N 70°04' E 029°45'0 0.0
2017-Oct-13 22:30N 70°04' E 029°45'0 0.0
2017-Oct-13 22:00N 70°04' E 029°45'0 0.0
2017-Oct-13 21:30N 70°04' E 029°45'0 0.0
2017-Oct-13 21:00N 70°04' E 029°45'0 0.0
2017-Oct-13 20:30N 70°04' E 029°45'0 0.0
2017-Oct-13 20:01N 70°04' E 029°45'0 0.0
2017-Oct-13 19:30N 70°04' E 029°45'0 0.0
2017-Oct-13 19:00N 70°04' E 029°45'0 0.0
2017-Oct-13 18:30N 70°04' E 029°45'0 0.0
2017-Oct-13 18:00N 70°04' E 029°45'0 0.0
2017-Oct-13 17:30N 70°04' E 029°45'0 0.0
2017-Oct-13 16:59N 70°04' E 029°45'0 0.0
2017-Oct-13 16:30N 70°04' E 029°45'0 0.0
2017-Oct-13 16:00N 70°04' E 029°45'0 0.0
2017-Oct-13 15:30N 70°04' E 029°45'0 0.0
2017-Oct-13 15:01N 70°04' E 029°45'0 0.1
2017-Oct-13 14:30N 70°04' E 029°45'3 6.7
2017-Oct-13 14:00N 70°01' E 029°48'510.3
2017-Oct-13 13:30N 69°57' E 029°55'510.3
2017-Oct-13 13:00N 69°52' E 030°01'5 9.6
2017-Oct-13 12:30N 69°48' E 030°06'4 7.1
2017-Oct-13 12:00N 69°44' E 030°06'0 0.0
2017-Oct-13 11:30N 69°44' E 030°06'0 0.0
2017-Oct-13 11:00N 69°44' E 030°06'0 0.0
2017-Oct-13 10:30N 69°44' E 030°06'0 0.0
2017-Oct-13 10:00N 69°44' E 030°06'0 0.0
2017-Oct-13 09:30N 69°44' E 030°06'0 0.0
2017-Oct-13 09:00N 69°44' E 030°06'0 0.0
2017-Oct-13 08:30N 69°44' E 030°06'0 0.0
2017-Oct-13 08:00N 69°44' E 030°06'0 0.0
2017-Oct-13 07:31N 69°44' E 030°06'0 0.0
2017-Oct-13 07:00N 69°44' E 030°06'0 0.0
2017-Oct-13 06:30N 69°44' E 030°06'0 0.0
2017-Oct-13 05:59N 69°44' E 030°06'0 0.0
2017-Oct-13 05:30N 69°44' E 030°06'0 0.0
2017-Oct-13 04:59N 69°44' E 030°06'0 0.0
2017-Oct-13 04:29N 69°44' E 030°06'0 0.0
2017-Oct-13 03:59N 69°44' E 030°06'0 0.0
2017-Oct-13 03:30N 69°44' E 030°06'0 0.0
2017-Oct-13 03:00N 69°44' E 030°06'0 0.0
2017-Oct-13 02:28N 69°44' E 030°06'0 0.0
2017-Oct-13 02:00N 69°44' E 030°06'0 0.0
2017-Oct-13 01:30N 69°44' E 030°06'0 0.0
2017-Oct-13 01:00N 69°44' E 030°06'0 0.0
2017-Oct-13 00:30N 69°44' E 030°06'0 0.0
2017-Oct-13 00:00N 69°44' E 030°06'0 0.0
2017-Oct-12 23:30N 69°44' E 030°06'0 0.0
2017-Oct-12 23:00N 69°44' E 030°06'0 0.0
2017-Oct-12 22:30N 69°44' E 030°06'0 0.0
2017-Oct-12 21:58N 69°44' E 030°06'0 0.0
2017-Oct-12 21:30N 69°44' E 030°06'0 0.0
2017-Oct-12 21:00N 69°44' E 030°06'0 0.0
2017-Oct-12 20:30N 69°44' E 030°06'0 0.0
2017-Oct-12 20:00N 69°44' E 030°06'0 0.0
2017-Oct-12 19:31N 69°44' E 030°06'0 0.2
2017-Oct-12 19:00N 69°44' E 030°06'4 8.1
2017-Oct-12 18:30N 69°48' E 030°06'4 7.7
2017-Oct-12 18:00N 69°52' E 030°02'4 8.2
2017-Oct-12 17:30N 69°55' E 029°57'4 8.3
2017-Oct-12 17:00N 69°58' E 029°47'10 8.4
2017-Oct-12 15:51N 70°02' E 029°21'3 7.7
2017-Oct-12 15:28N 70°01' E 029°13'0 0.0
2017-Oct-12 15:00N 70°01' E 029°13'0 0.0
2017-Oct-12 14:31N 70°01' E 029°13'1 1.9
2017-Oct-12 13:46N 70°02' E 029°17'3 9.9
2017-Oct-12 13:30N 70°01' E 029°25'510.7
2017-Oct-12 12:59N 69°60' E 029°39'510.6
2017-Oct-12 12:30N 69°57' E 029°52'510.3
2017-Oct-12 12:00N 69°52' E 030°01'510.1
2017-Oct-12 11:30N 69°48' E 030°06'4 7.6
2017-Oct-12 11:00N 69°44' E 030°06'0 0.0
2017-Oct-12 10:30N 69°44' E 030°06'0 0.0
2017-Oct-12 10:00N 69°44' E 030°06'0 0.0
2017-Oct-12 09:30N 69°44' E 030°06'0 0.0
2017-Oct-12 09:00N 69°44' E 030°06'0 0.0
2017-Oct-12 08:30N 69°44' E 030°06'0 0.0
2017-Oct-12 08:00N 69°44' E 030°06'0 0.0
2017-Oct-12 07:30N 69°44' E 030°06'0 0.0
2017-Oct-12 07:00N 69°44' E 030°06'0 0.0
2017-Oct-12 06:30N 69°44' E 030°06'0 0.0
2017-Oct-12 06:00N 69°44' E 030°06'0 0.0
2017-Oct-12 05:29N 69°44' E 030°06'0 0.0
2017-Oct-12 05:00N 69°44' E 030°06'0 0.0
2017-Oct-12 04:30N 69°44' E 030°06'0 0.0
2017-Oct-12 04:00N 69°44' E 030°06'0 0.0
2017-Oct-12 03:30N 69°44' E 030°06'0 0.0
2017-Oct-12 03:00N 69°44' E 030°06'0 0.0
2017-Oct-12 02:29N 69°44' E 030°06'0 0.0
2017-Oct-12 02:00N 69°44' E 030°06'0 0.0
2017-Oct-12 01:30N 69°44' E 030°06'0 0.0
2017-Oct-12 01:00N 69°44' E 030°06'0 0.0
2017-Oct-12 00:30N 69°44' E 030°06'0 0.0
2017-Oct-12 00:00N 69°44' E 030°06'0 0.0
2017-Oct-11 23:30N 69°44' E 030°06'0 0.0
2017-Oct-11 23:00N 69°44' E 030°06'0 0.0
2017-Oct-11 22:30N 69°44' E 030°06'0 0.0
2017-Oct-11 22:00N 69°44' E 030°06'0 0.0
2017-Oct-11 21:30N 69°44' E 030°06'0 0.0
2017-Oct-11 21:00N 69°44' E 030°06'0 0.0
2017-Oct-11 20:30N 69°44' E 030°06'0 0.0
2017-Oct-11 20:00N 69°44' E 030°06'1 1.6
2017-Oct-11 19:30N 69°45' E 030°06'4 8.6
2017-Oct-11 19:00N 69°49' E 030°06'4 8.1
2017-Oct-11 18:30N 69°53' E 030°01'4 7.9
2017-Oct-11 18:00N 69°56' E 029°55'4 8.0
2017-Oct-11 17:30N 69°58' E 029°45'4 8.1
2017-Oct-11 16:58N 70°00' E 029°34'20 1.2
2017-Oct-11 00:00N 69°44' E 030°06'0 0.0
2017-Oct-10 23:30N 69°44' E 030°06'0 0.0
2017-Oct-10 23:00N 69°44' E 030°06'0 0.0
2017-Oct-10 22:30N 69°44' E 030°06'0 0.0
2017-Oct-10 22:00N 69°44' E 030°06'0 0.0
2017-Oct-10 21:30N 69°44' E 030°06'0 0.0
2017-Oct-10 21:01N 69°44' E 030°06'0 0.0
2017-Oct-10 20:31N 69°44' E 030°06'0 0.0
2017-Oct-10 20:00N 69°44' E 030°06'0 0.0
2017-Oct-10 19:30N 69°44' E 030°06'0 0.0
2017-Oct-10 19:00N 69°44' E 030°06'2 3.1
2017-Oct-10 18:30N 69°45' E 030°06'4 8.6
2017-Oct-10 18:00N 69°50' E 030°06'4 8.2
2017-Oct-10 17:30N 69°53' E 029°60'4 7.9
2017-Oct-10 17:00N 69°56' E 029°52'4 8.0
2017-Oct-10 16:30N 69°59' E 029°43'4 8.0
2017-Oct-10 16:00N 70°00' E 029°33'4 8.1
2017-Oct-10 15:30N 70°02' E 029°21'1 0.6
2017-Oct-10 13:32N 70°02' E 029°18'1 7.0
2017-Oct-10 13:27N 70°02' E 029°20'410.0
2017-Oct-10 13:00N 70°01' E 029°32'510.1
2017-Oct-10 12:30N 69°58' E 029°45'510.0
2017-Oct-10 12:00N 69°55' E 029°57'510.3
2017-Oct-10 11:30N 69°51' E 030°04'5 9.9
2017-Oct-10 11:00N 69°46' E 030°06'2 3.6
2017-Oct-10 10:31N 69°44' E 030°06'0 0.0
2017-Oct-10 10:00N 69°44' E 030°06'0 0.0
2017-Oct-10 09:30N 69°44' E 030°06'0 0.0
2017-Oct-10 09:00N 69°44' E 030°06'0 0.0
2017-Oct-10 08:30N 69°44' E 030°06'0 0.0
2017-Oct-10 08:00N 69°44' E 030°06'0 0.0
2017-Oct-10 07:30N 69°44' E 030°06'0 0.0
2017-Oct-10 06:59N 69°44' E 030°06'0 0.0
2017-Oct-10 06:30N 69°44' E 030°06'0 0.0
2017-Oct-10 06:00N 69°44' E 030°06'0 0.0
2017-Oct-10 05:30N 69°44' E 030°06'0 0.0
2017-Oct-10 05:00N 69°44' E 030°06'0 0.0
2017-Oct-10 04:30N 69°44' E 030°06'0 0.0
2017-Oct-10 04:00N 69°44' E 030°06'0 0.0
2017-Oct-10 03:30N 69°44' E 030°06'0 0.0
2017-Oct-10 03:00N 69°44' E 030°06'0 0.0
2017-Oct-10 02:30N 69°44' E 030°06'0 0.0
2017-Oct-10 02:00N 69°44' E 030°06'0 0.0
2017-Oct-10 01:30N 69°44' E 030°06'0 0.0
2017-Oct-10 01:00N 69°44' E 030°06'0 0.0
2017-Oct-10 00:30N 69°44' E 030°06'0 0.0
2017-Oct-10 00:00N 69°44' E 030°06'0 0.0
2017-Oct-09 23:30N 69°44' E 030°06'0 0.0
2017-Oct-09 23:01N 69°44' E 030°06'0 0.0
2017-Oct-09 22:31N 69°44' E 030°06'0 0.0
2017-Oct-09 22:00N 69°44' E 030°06'0 0.0
2017-Oct-09 21:30N 69°44' E 030°06'0 0.0
2017-Oct-09 21:00N 69°44' E 030°06'0 0.0
2017-Oct-09 20:30N 69°44' E 030°06'0 0.0
2017-Oct-09 20:00N 69°44' E 030°06'1 1.6
2017-Oct-09 19:30N 69°45' E 030°06'4 8.3
2017-Oct-09 19:00N 69°49' E 030°06'4 7.6
2017-Oct-09 18:29N 69°52' E 030°01'4 8.0
2017-Oct-09 18:00N 69°56' E 029°55'4 8.4
2017-Oct-09 17:30N 69°58' E 029°45'4 8.7
2017-Oct-09 17:00N 70°00' E 029°34'5 8.7
2017-Oct-09 16:28N 70°02' E 029°21'1 0.5
2017-Oct-09 14:18N 70°02' E 029°18'3 8.1
2017-Oct-09 14:00N 70°01' E 029°26'5 9.9
2017-Oct-09 13:30N 69°59' E 029°39'510.0
2017-Oct-09 13:00N 69°57' E 029°51'5 9.5
2017-Oct-09 12:30N 69°53' E 029°60'5 9.4
2017-Oct-09 12:01N 69°49' E 030°07'5 9.3
2017-Oct-09 11:30N 69°44' E 030°06'1 1.7
2017-Oct-09 11:00N 69°44' E 030°04'1 1.5
2017-Oct-09 10:30N 69°44' E 030°06'0 0.0
2017-Oct-09 10:00N 69°44' E 030°06'0 0.0
2017-Oct-09 09:30N 69°44' E 030°06'0 0.0
2017-Oct-09 09:00N 69°44' E 030°06'0 0.0
2017-Oct-09 08:30N 69°44' E 030°06'0 0.0
2017-Oct-09 08:00N 69°44' E 030°06'0 0.0
2017-Oct-09 07:31N 69°44' E 030°06'0 0.0
2017-Oct-09 07:00N 69°44' E 030°06'0 0.0
2017-Oct-09 06:30N 69°44' E 030°06'0 0.0
2017-Oct-09 06:00N 69°44' E 030°06'0 0.0
2017-Oct-09 05:30N 69°44' E 030°06'0 0.0
2017-Oct-09 05:00N 69°44' E 030°06'0 0.0
2017-Oct-09 04:30N 69°44' E 030°06'0 0.0
2017-Oct-09 04:00N 69°44' E 030°06'0 0.0
2017-Oct-09 03:30N 69°44' E 030°06'0 0.0
2017-Oct-09 03:01N 69°44' E 030°06'0 0.0
2017-Oct-09 02:30N 69°44' E 030°06'0 0.0
2017-Oct-09 02:00N 69°44' E 030°06'0 0.0
2017-Oct-09 01:30N 69°44' E 030°06'0 0.0
2017-Oct-09 01:00N 69°44' E 030°06'0 0.0
2017-Oct-09 00:30N 69°44' E 030°06'0 0.0
2017-Oct-09 00:00N 69°44' E 030°06'0 0.0
2017-Oct-08 23:30N 69°44' E 030°06'3 6.7
2017-Oct-08 23:00N 69°47' E 030°06'4 8.4
2017-Oct-08 22:30N 69°51' E 030°08'4 8.0
2017-Oct-08 22:00N 69°55' E 030°14'4 8.7
2017-Oct-08 21:30N 69°58' E 030°21'4 8.9
2017-Oct-08 21:01N 70°02' E 030°29'4 8.8
2017-Oct-08 20:30N 70°05' E 030°38'4 8.8
2017-Oct-08 20:00N 70°09' E 030°46'4 8.9
2017-Oct-08 19:30N 70°12' E 030°54'4 8.9
2017-Oct-08 19:00N 70°16' E 031°02'4 8.5
2017-Oct-08 18:31N 70°20' E 031°05'5 9.3
2017-Oct-08 18:00N 70°24' E 031°02'4 9.0
2017-Oct-08 17:30N 70°28' E 030°55'5 9.0
2017-Oct-08 17:00N 70°31' E 030°45'4 9.2
2017-Oct-08 16:30N 70°34' E 030°34'2 0.6
2017-Oct-08 13:16N 70°34' E 030°28'3 9.9
2017-Oct-08 13:00N 70°34' E 030°36'5 9.6
2017-Oct-08 12:31N 70°32' E 030°49'5 9.9
2017-Oct-08 12:01N 70°28' E 030°58'5 9.8
2017-Oct-08 11:30N 70°23' E 031°03'510.3
2017-Oct-08 11:00N 70°18' E 031°05'5 9.6
2017-Oct-08 10:30N 70°14' E 030°58'5 9.7
2017-Oct-08 10:00N 70°10' E 030°49'5 9.9
2017-Oct-08 09:30N 70°06' E 030°40'5 9.9
2017-Oct-08 09:00N 70°02' E 030°31'5 9.9
2017-Oct-08 08:30N 69°59' E 030°23'510.0
2017-Oct-08 08:00N 69°55' E 030°13'510.1
2017-Oct-08 07:30N 69°50' E 030°07'510.4
2017-Oct-08 07:00N 69°45' E 030°05'2 3.1
2017-Oct-08 06:30N 69°44' E 030°02'0 0.0
2017-Oct-08 06:00N 69°44' E 030°02'0 0.0
2017-Oct-08 05:30N 69°44' E 030°02'0 0.0
2017-Oct-08 05:00N 69°44' E 030°02'0 0.0
2017-Oct-08 04:30N 69°44' E 030°02'0 0.0
2017-Oct-08 04:00N 69°44' E 030°02'  
Track history (hours):
 
Tides and Currents Weather Stations Pressure Air Temp Water Temp Dewpoint Dewpoint Depression Visibility Wind Speed Wind Dir Waves Ship Positions

Robris

Last reported at 2017-Oct-18 04:00 UTC. Time now 2017-Oct-18 04:07 UTC.
Position N 69°44' E 030°06'.

Length 46 m; draft 5.3 m.

Type: Cargo ship. MMSI: 259631000.

Date/timePositionNaut miles runAvg speedWind from/ knotsBaromVisibWave heightAir tempDewpointWater temp
2017-Oct-18 04:00N 69°44' E 030°06'0 0.0
2017-Oct-18 03:31N 69°44' E 030°06'0 0.0
2017-Oct-18 03:00N 69°44' E 030°06'0 0.0
2017-Oct-18 02:30N 69°44' E 030°06'0 0.0
2017-Oct-18 02:00N 69°44' E 030°06'0 0.0
2017-Oct-18 01:30N 69°44' E 030°06'0 0.0
2017-Oct-18 01:00N 69°44' E 030°06'0 0.0
2017-Oct-18 00:30N 69°44' E 030°06'0 0.0
2017-Oct-18 00:00N 69°44' E 030°06'0 0.0
2017-Oct-17 23:30N 69°44' E 030°06'0 0.0
2017-Oct-17 23:00N 69°44' E 030°06'0 0.0
2017-Oct-17 22:30N 69°44' E 030°06'0 0.0
2017-Oct-17 22:00N 69°44' E 030°06'0 0.0
2017-Oct-17 21:30N 69°44' E 030°06'0 0.0
2017-Oct-17 21:01N 69°44' E 030°06'0 0.0
2017-Oct-17 20:30N 69°44' E 030°06'4 7.2
2017-Oct-17 20:00N 69°48' E 030°06'4 7.8
2017-Oct-17 19:30N 69°51' E 030°02'4 8.0
2017-Oct-17 18:59N 69°55' E 029°58'4 7.5
2017-Oct-17 18:26N 69°58' E 029°49'4 8.1
2017-Oct-17 18:00N 69°59' E 029°40'9 7.8
2017-Oct-17 16:50N 70°01' E 029°13'0 0.7
2017-Oct-17 16:30N 70°01' E 029°13'0 0.0
2017-Oct-17 16:00N 70°01' E 029°13'0 0.0
2017-Oct-17 15:29N 70°01' E 029°13'3 6.2
2017-Oct-17 15:00N 70°02' E 029°21'510.2
2017-Oct-17 14:30N 70°00' E 029°35'5 9.9
2017-Oct-17 14:00N 69°58' E 029°48'5 9.9
2017-Oct-17 13:30N 69°54' E 029°59'4 7.5
2017-Oct-17 13:00N 69°51' E 030°04'0 0.2
2017-Oct-17 12:30N 69°51' E 030°04'3 5.5
2017-Oct-17 12:00N 69°49' E 030°06'5 9.4
2017-Oct-17 11:30N 69°44' E 030°06'0 0.0
2017-Oct-17 11:00N 69°44' E 030°06'0 0.0
2017-Oct-17 10:30N 69°44' E 030°06'0 0.0
2017-Oct-17 10:00N 69°44' E 030°06'0 0.0
2017-Oct-17 09:30N 69°44' E 030°06'0 0.0
2017-Oct-17 09:00N 69°44' E 030°06'0 0.0
2017-Oct-17 08:29N 69°44' E 030°06'0 0.0
2017-Oct-17 08:00N 69°44' E 030°06'0 0.0
2017-Oct-17 07:30N 69°44' E 030°06'0 0.0
2017-Oct-17 07:00N 69°44' E 030°06'0 0.0
2017-Oct-17 06:30N 69°44' E 030°06'0 0.0
2017-Oct-17 06:01N 69°44' E 030°06'0 0.0
2017-Oct-17 05:30N 69°44' E 030°06'0 0.0
2017-Oct-17 05:00N 69°44' E 030°06'0 0.0
2017-Oct-17 04:31N 69°44' E 030°06'0 0.0
2017-Oct-17 03:59N 69°44' E 030°06'0 0.0
2017-Oct-17 03:30N 69°44' E 030°06'0 0.0
2017-Oct-17 03:00N 69°44' E 030°06'0 0.0
2017-Oct-17 02:30N 69°44' E 030°06'0 0.0
2017-Oct-17 02:00N 69°44' E 030°06'0 0.0
2017-Oct-17 01:30N 69°44' E 030°06'0 0.0
2017-Oct-17 01:00N 69°44' E 030°06'0 0.0
2017-Oct-17 00:30N 69°44' E 030°06'0 0.0
2017-Oct-17 00:00N 69°44' E 030°06'0 0.0
2017-Oct-16 23:30N 69°44' E 030°06'0 0.0
2017-Oct-16 23:00N 69°44' E 030°06'0 0.0
2017-Oct-16 22:31N 69°44' E 030°06'0 0.0
2017-Oct-16 22:00N 69°44' E 030°06'0 0.0
2017-Oct-16 21:30N 69°44' E 030°06'0 0.0
2017-Oct-16 21:00N 69°44' E 030°06'0 0.0
2017-Oct-16 20:30N 69°44' E 030°06'0 0.0
2017-Oct-16 20:00N 69°44' E 030°06'0 0.0
2017-Oct-16 19:30N 69°44' E 030°06'4 7.3
2017-Oct-16 18:59N 69°48' E 030°06'4 7.7
2017-Oct-16 18:30N 69°51' E 030°02'4 8.2
2017-Oct-16 18:00N 69°55' E 029°58'4 7.7
2017-Oct-16 17:29N 69°58' E 029°49'4 8.3
2017-Oct-16 17:00N 69°59' E 029°39'5 8.2
2017-Oct-16 16:21N 70°02' E 029°24'4 7.8
2017-Oct-16 15:53N 70°02' E 029°14'0 0.8
2017-Oct-16 15:30N 70°01' E 029°13'0 0.0
2017-Oct-16 14:59N 70°01' E 029°13'3 2.9
2017-Oct-16 14:00N 70°02' E 029°21'510.6
2017-Oct-16 13:30N 70°00' E 029°36'510.4
2017-Oct-16 13:00N 69°58' E 029°49'510.3
2017-Oct-16 12:30N 69°54' E 029°59'510.6
2017-Oct-16 12:00N 69°49' E 030°06'510.5
2017-Oct-16 11:30N 69°44' E 030°06'0 0.5
2017-Oct-16 11:00N 69°44' E 030°06'0 0.0
2017-Oct-16 10:30N 69°44' E 030°06'0 0.0
2017-Oct-16 10:00N 69°44' E 030°06'0 0.0
2017-Oct-16 09:31N 69°44' E 030°06'0 0.0
2017-Oct-16 09:00N 69°44' E 030°06'0 0.0
2017-Oct-16 08:30N 69°44' E 030°06'0 0.0
2017-Oct-16 08:00N 69°44' E 030°06'0 0.0
2017-Oct-16 07:31N 69°44' E 030°06'0 0.0
2017-Oct-16 07:00N 69°44' E 030°06'0 0.0
2017-Oct-16 06:30N 69°44' E 030°06'0 0.0
2017-Oct-16 06:01N 69°44' E 030°06'0 0.0
2017-Oct-16 05:30N 69°44' E 030°06'0 0.0
2017-Oct-16 05:01N 69°44' E 030°06'0 0.0
2017-Oct-16 04:30N 69°44' E 030°06'0 0.0
2017-Oct-16 04:00N 69°44' E 030°06'0 0.0
2017-Oct-16 03:30N 69°44' E 030°06'0 0.0
2017-Oct-16 03:00N 69°44' E 030°06'0 0.0
2017-Oct-16 02:30N 69°44' E 030°06'0 0.0
2017-Oct-16 02:00N 69°44' E 030°06'0 0.0
2017-Oct-16 01:30N 69°44' E 030°06'0 0.0
2017-Oct-16 00:59N 69°44' E 030°06'0 0.0
2017-Oct-16 00:31N 69°44' E 030°06'0 0.0
2017-Oct-16 00:00N 69°44' E 030°06'0 0.0
2017-Oct-15 23:30N 69°44' E 030°06'0 0.0
2017-Oct-15 23:00N 69°44' E 030°06'0 0.0
2017-Oct-15 22:30N 69°44' E 030°06'0 0.0
2017-Oct-15 22:00N 69°44' E 030°06'0 0.0
2017-Oct-15 21:30N 69°44' E 030°06'0 0.0
2017-Oct-15 21:00N 69°44' E 030°06'0 0.0
2017-Oct-15 20:30N 69°44' E 030°06'0 0.0
2017-Oct-15 20:00N 69°44' E 030°06'0 0.0
2017-Oct-15 19:30N 69°44' E 030°06'0 0.2
2017-Oct-15 19:00N 69°44' E 030°06'4 7.4
2017-Oct-15 18:30N 69°48' E 030°06'4 7.4
2017-Oct-15 18:00N 69°51' E 030°03'4 8.0
2017-Oct-15 17:30N 69°55' E 029°58'4 8.2
2017-Oct-15 16:58N 69°58' E 029°48'4 8.5
2017-Oct-15 16:30N 69°60' E 029°38'5 8.5
2017-Oct-15 15:56N 70°01' E 029°26'4 8.0
2017-Oct-15 15:26N 70°02' E 029°14'0 0.7
2017-Oct-15 15:00N 70°01' E 029°13'0 0.0
2017-Oct-15 14:00N 70°01' E 029°13'2 4.6
2017-Oct-15 13:30N 70°02' E 029°19'5 9.6
2017-Oct-15 13:00N 70°04' E 029°32'4 8.4
2017-Oct-15 12:30N 70°04' E 029°45'0 0.0
2017-Oct-15 12:00N 70°04' E 029°45'0 0.0
2017-Oct-15 11:30N 70°04' E 029°45'0 0.0
2017-Oct-15 11:00N 70°04' E 029°45'0 0.0
2017-Oct-15 10:30N 70°04' E 029°45'0 0.0
2017-Oct-15 10:00N 70°04' E 029°45'0 0.0
2017-Oct-15 09:30N 70°04' E 029°45'0 0.0
2017-Oct-15 09:00N 70°04' E 029°45'0 0.0
2017-Oct-15 08:30N 70°04' E 029°45'0 0.0
2017-Oct-15 08:00N 70°04' E 029°45'0 0.0
2017-Oct-15 07:30N 70°04' E 029°45'0 0.0
2017-Oct-15 07:00N 70°04' E 029°45'0 0.0
2017-Oct-15 06:31N 70°04' E 029°45'0 0.0
2017-Oct-15 06:00N 70°04' E 029°45'0 0.0
2017-Oct-15 05:29N 70°04' E 029°45'0 0.0
2017-Oct-15 05:00N 70°04' E 029°45'0 0.0
2017-Oct-15 04:30N 70°04' E 029°45'0 0.0
2017-Oct-15 04:00N 70°04' E 029°45'0 0.0
2017-Oct-15 03:30N 70°04' E 029°45'0 0.0
2017-Oct-15 03:00N 70°04' E 029°45'0 0.0
2017-Oct-15 02:30N 70°04' E 029°45'0 0.0
2017-Oct-15 02:00N 70°04' E 029°45'0 0.0
2017-Oct-15 01:30N 70°04' E 029°45'0 0.0
2017-Oct-15 01:00N 70°04' E 029°45'0 0.0
2017-Oct-15 00:30N 70°04' E 029°45'0 0.0
2017-Oct-15 00:00N 70°04' E 029°45'0 0.0
2017-Oct-14 23:30N 70°04' E 029°45'0 0.0
2017-Oct-14 23:01N 70°04' E 029°45'0 0.0
2017-Oct-14 22:30N 70°04' E 029°45'0 0.0
2017-Oct-14 22:00N 70°04' E 029°45'0 0.0
2017-Oct-14 21:30N 70°04' E 029°45'0 0.0
2017-Oct-14 21:00N 70°04' E 029°45'0 0.0
2017-Oct-14 20:30N 70°04' E 029°45'0 0.0
2017-Oct-14 20:00N 70°04' E 029°45'0 0.0
2017-Oct-14 19:30N 70°04' E 029°45'0 0.0
2017-Oct-14 19:00N 70°04' E 029°45'0 0.0
2017-Oct-14 18:30N 70°04' E 029°45'0 0.0
2017-Oct-14 18:00N 70°04' E 029°45'0 0.0
2017-Oct-14 17:30N 70°04' E 029°45'0 0.0
2017-Oct-14 17:01N 70°04' E 029°45'0 0.0
2017-Oct-14 16:31N 70°04' E 029°45'0 0.0
2017-Oct-14 16:00N 70°04' E 029°45'0 0.0
2017-Oct-14 15:30N 70°04' E 029°45'0 0.0
2017-Oct-14 15:00N 70°04' E 029°45'0 0.1
2017-Oct-14 14:29N 70°04' E 029°45'0 0.0
2017-Oct-14 14:00N 70°04' E 029°45'0 0.0
2017-Oct-14 13:30N 70°04' E 029°45'0 0.0
2017-Oct-14 13:00N 70°04' E 029°45'0 0.0
2017-Oct-14 12:30N 70°04' E 029°45'0 0.0
2017-Oct-14 12:00N 70°04' E 029°45'0 0.0
2017-Oct-14 11:30N 70°04' E 029°45'0 0.0
2017-Oct-14 11:00N 70°04' E 029°45'0 0.0
2017-Oct-14 10:30N 70°04' E 029°45'0 0.0
2017-Oct-14 10:00N 70°04' E 029°45'0 0.0
2017-Oct-14 09:30N 70°04' E 029°45'0 0.0
2017-Oct-14 09:00N 70°04' E 029°45'0 0.0
2017-Oct-14 08:30N 70°04' E 029°45'0 0.0
2017-Oct-14 07:59N 70°04' E 029°45'0 0.0
2017-Oct-14 07:30N 70°04' E 029°45'0 0.0
2017-Oct-14 07:00N 70°04' E 029°45'0 0.0
2017-Oct-14 06:30N 70°04' E 029°45'0 0.0
2017-Oct-14 06:00N 70°04' E 029°45'0 0.0
2017-Oct-14 05:30N 70°04' E 029°45'0 0.0
2017-Oct-14 05:00N 70°04' E 029°45'0 0.0
2017-Oct-14 04:31N 70°04' E 029°45'0 0.0
2017-Oct-14 04:00N 70°04' E 029°45'0 0.0
2017-Oct-14 03:30N 70°04' E 029°45'0 0.0
2017-Oct-14 03:00N 70°04' E 029°45'0 0.0
2017-Oct-14 02:30N 70°04' E 029°45'0 0.0
2017-Oct-14 02:00N 70°04' E 029°45'0 0.0
2017-Oct-14 01:31N 70°04' E 029°45'0 0.0
2017-Oct-14 01:00N 70°04' E 029°45'0 0.0
2017-Oct-14 00:30N 70°04' E 029°45'0 0.0
2017-Oct-14 00:01N 70°04' E 029°45'0 0.0
2017-Oct-13 23:30N 70°04' E 029°45'0 0.0
2017-Oct-13 23:00N 70°04' E 029°45'0 0.0
2017-Oct-13 22:30N 70°04' E 029°45'0 0.0
2017-Oct-13 22:00N 70°04' E 029°45'0 0.0
2017-Oct-13 21:30N 70°04' E 029°45'0 0.0
2017-Oct-13 21:00N 70°04' E 029°45'0 0.0
2017-Oct-13 20:30N 70°04' E 029°45'0 0.0
2017-Oct-13 20:01N 70°04' E 029°45'0 0.0
2017-Oct-13 19:30N 70°04' E 029°45'0 0.0
2017-Oct-13 19:00N 70°04' E 029°45'0 0.0
2017-Oct-13 18:30N 70°04' E 029°45'0 0.0
2017-Oct-13 18:00N 70°04' E 029°45'0 0.0
2017-Oct-13 17:30N 70°04' E 029°45'0 0.0
2017-Oct-13 16:59N 70°04' E 029°45'0 0.0
2017-Oct-13 16:30N 70°04' E 029°45'0 0.0
2017-Oct-13 16:00N 70°04' E 029°45'0 0.0
2017-Oct-13 15:30N 70°04' E 029°45'0 0.0
2017-Oct-13 15:01N 70°04' E 029°45'0 0.1
2017-Oct-13 14:30N 70°04' E 029°45'3 6.7
2017-Oct-13 14:00N 70°01' E 029°48'510.3
2017-Oct-13 13:30N 69°57' E 029°55'510.3
2017-Oct-13 13:00N 69°52' E 030°01'5 9.6
2017-Oct-13 12:30N 69°48' E 030°06'4 7.1
2017-Oct-13 12:00N 69°44' E 030°06'0 0.0
2017-Oct-13 11:30N 69°44' E 030°06'0 0.0
2017-Oct-13 11:00N 69°44' E 030°06'0 0.0
2017-Oct-13 10:30N 69°44' E 030°06'0 0.0
2017-Oct-13 10:00N 69°44' E 030°06'0 0.0
2017-Oct-13 09:30N 69°44' E 030°06'0 0.0
2017-Oct-13 09:00N 69°44' E 030°06'0 0.0
2017-Oct-13 08:30N 69°44' E 030°06'0 0.0
2017-Oct-13 08:00N 69°44' E 030°06'0 0.0
2017-Oct-13 07:31N 69°44' E 030°06'0 0.0
2017-Oct-13 07:00N 69°44' E 030°06'0 0.0
2017-Oct-13 06:30N 69°44' E 030°06'0 0.0
2017-Oct-13 05:59N 69°44' E 030°06'0 0.0
2017-Oct-13 05:30N 69°44' E 030°06'0 0.0
2017-Oct-13 04:59N 69°44' E 030°06'0 0.0
2017-Oct-13 04:29N 69°44' E 030°06'0 0.0
2017-Oct-13 03:59N 69°44' E 030°06'0 0.0
2017-Oct-13 03:30N 69°44' E 030°06'0 0.0
2017-Oct-13 03:00N 69°44' E 030°06'0 0.0
2017-Oct-13 02:28N 69°44' E 030°06'0 0.0
2017-Oct-13 02:00N 69°44' E 030°06'0 0.0
2017-Oct-13 01:30N 69°44' E 030°06'0 0.0
2017-Oct-13 01:00N 69°44' E 030°06'0 0.0
2017-Oct-13 00:30N 69°44' E 030°06'0 0.0
2017-Oct-13 00:00N 69°44' E 030°06'0 0.0
2017-Oct-12 23:30N 69°44' E 030°06'0 0.0
2017-Oct-12 23:00N 69°44' E 030°06'0 0.0
2017-Oct-12 22:30N 69°44' E 030°06'0 0.0
2017-Oct-12 21:58N 69°44' E 030°06'0 0.0
2017-Oct-12 21:30N 69°44' E 030°06'0 0.0
2017-Oct-12 21:00N 69°44' E 030°06'0 0.0
2017-Oct-12 20:30N 69°44' E 030°06'0 0.0
2017-Oct-12 20:00N 69°44' E 030°06'0 0.0
2017-Oct-12 19:31N 69°44' E 030°06'0 0.2
2017-Oct-12 19:00N 69°44' E 030°06'4 8.1
2017-Oct-12 18:30N 69°48' E 030°06'4 7.7
2017-Oct-12 18:00N 69°52' E 030°02'4 8.2
2017-Oct-12 17:30N 69°55' E 029°57'4 8.3
2017-Oct-12 17:00N 69°58' E 029°47'10 8.4
2017-Oct-12 15:51N 70°02' E 029°21'3 7.7
2017-Oct-12 15:28N 70°01' E 029°13'0 0.0
2017-Oct-12 15:00N 70°01' E 029°13'0 0.0
2017-Oct-12 14:31N 70°01' E 029°13'1 1.9
2017-Oct-12 13:46N 70°02' E 029°17'3 9.9
2017-Oct-12 13:30N 70°01' E 029°25'510.7
2017-Oct-12 12:59N 69°60' E 029°39'510.6
2017-Oct-12 12:30N 69°57' E 029°52'510.3
2017-Oct-12 12:00N 69°52' E 030°01'510.1
2017-Oct-12 11:30N 69°48' E 030°06'4 7.6
2017-Oct-12 11:00N 69°44' E 030°06'0 0.0
2017-Oct-12 10:30N 69°44' E 030°06'0 0.0
2017-Oct-12 10:00N 69°44' E 030°06'0 0.0
2017-Oct-12 09:30N 69°44' E 030°06'0 0.0
2017-Oct-12 09:00N 69°44' E 030°06'0 0.0
2017-Oct-12 08:30N 69°44' E 030°06'0 0.0
2017-Oct-12 08:00N 69°44' E 030°06'0 0.0
2017-Oct-12 07:30N 69°44' E 030°06'0 0.0
2017-Oct-12 07:00N 69°44' E 030°06'0 0.0
2017-Oct-12 06:30N 69°44' E 030°06'0 0.0
2017-Oct-12 06:00N 69°44' E 030°06'0 0.0
2017-Oct-12 05:29N 69°44' E 030°06'0 0.0
2017-Oct-12 05:00N 69°44' E 030°06'0 0.0
2017-Oct-12 04:30N 69°44' E 030°06'0 0.0
2017-Oct-12 04:00N 69°44' E 030°06'0 0.0
2017-Oct-12 03:30N 69°44' E 030°06'0 0.0
2017-Oct-12 03:00N 69°44' E 030°06'0 0.0
2017-Oct-12 02:29N 69°44' E 030°06'0 0.0
2017-Oct-12 02:00N 69°44' E 030°06'0 0.0
2017-Oct-12 01:30N 69°44' E 030°06'0 0.0
2017-Oct-12 01:00N 69°44' E 030°06'0 0.0
2017-Oct-12 00:30N 69°44' E 030°06'0 0.0
2017-Oct-12 00:00N 69°44' E 030°06'0 0.0
2017-Oct-11 23:30N 69°44' E 030°06'0 0.0
2017-Oct-11 23:00N 69°44' E 030°06'0 0.0
2017-Oct-11 22:30N 69°44' E 030°06'0 0.0
2017-Oct-11 22:00N 69°44' E 030°06'0 0.0
2017-Oct-11 21:30N 69°44' E 030°06'0 0.0
2017-Oct-11 21:00N 69°44' E 030°06'0 0.0
2017-Oct-11 20:30N 69°44' E 030°06'0 0.0
2017-Oct-11 20:00N 69°44' E 030°06'1 1.6
2017-Oct-11 19:30N 69°45' E 030°06'4 8.6
2017-Oct-11 19:00N 69°49' E 030°06'4 8.1
2017-Oct-11 18:30N 69°53' E 030°01'4 7.9
2017-Oct-11 18:00N 69°56' E 029°55'4 8.0
2017-Oct-11 17:30N 69°58' E 029°45'4 8.1
2017-Oct-11 16:58N 70°00' E 029°34'20 1.2
2017-Oct-11 00:00N 69°44' E 030°06'0 0.0
2017-Oct-10 23:30N 69°44' E 030°06'0 0.0
2017-Oct-10 23:00N 69°44' E 030°06'0 0.0
2017-Oct-10 22:30N 69°44' E 030°06'0 0.0
2017-Oct-10 22:00N 69°44' E 030°06'0 0.0
2017-Oct-10 21:30N 69°44' E 030°06'0 0.0
2017-Oct-10 21:01N 69°44' E 030°06'0 0.0
2017-Oct-10 20:31N 69°44' E 030°06'0 0.0
2017-Oct-10 20:00N 69°44' E 030°06'0 0.0
2017-Oct-10 19:30N 69°44' E 030°06'0 0.0
2017-Oct-10 19:00N 69°44' E 030°06'2 3.1
2017-Oct-10 18:30N 69°45' E 030°06'4 8.6
2017-Oct-10 18:00N 69°50' E 030°06'4 8.2
2017-Oct-10 17:30N 69°53' E 029°60'4 7.9
2017-Oct-10 17:00N 69°56' E 029°52'4 8.0
2017-Oct-10 16:30N 69°59' E 029°43'4 8.0
2017-Oct-10 16:00N 70°00' E 029°33'4 8.1
2017-Oct-10 15:30N 70°02' E 029°21'1 0.6
2017-Oct-10 13:32N 70°02' E 029°18'1 7.0
2017-Oct-10 13:27N 70°02' E 029°20'410.0
2017-Oct-10 13:00N 70°01' E 029°32'510.1
2017-Oct-10 12:30N 69°58' E 029°45'510.0
2017-Oct-10 12:00N 69°55' E 029°57'510.3
2017-Oct-10 11:30N 69°51' E 030°04'5 9.9
2017-Oct-10 11:00N 69°46' E 030°06'2 3.6
2017-Oct-10 10:31N 69°44' E 030°06'0 0.0
2017-Oct-10 10:00N 69°44' E 030°06'0 0.0
2017-Oct-10 09:30N 69°44' E 030°06'0 0.0
2017-Oct-10 09:00N 69°44' E 030°06'0 0.0
2017-Oct-10 08:30N 69°44' E 030°06'0 0.0
2017-Oct-10 08:00N 69°44' E 030°06'0 0.0
2017-Oct-10 07:30N 69°44' E 030°06'0 0.0
2017-Oct-10 06:59N 69°44' E 030°06'0 0.0
2017-Oct-10 06:30N 69°44' E 030°06'0 0.0
2017-Oct-10 06:00N 69°44' E 030°06'0 0.0
2017-Oct-10 05:30N 69°44' E 030°06'0 0.0
2017-Oct-10 05:00N 69°44' E 030°06'0 0.0
2017-Oct-10 04:30N 69°44' E 030°06'0 0.0
2017-Oct-10 04:00N 69°44' E 030°06'0 0.0
2017-Oct-10 03:30N 69°44' E 030°06'0 0.0
2017-Oct-10 03:00N 69°44' E 030°06'0 0.0
2017-Oct-10 02:30N 69°44' E 030°06'0 0.0
2017-Oct-10 02:00N 69°44' E 030°06'0 0.0
2017-Oct-10 01:30N 69°44' E 030°06'0 0.0
2017-Oct-10 01:00N 69°44' E 030°06'0 0.0
2017-Oct-10 00:30N 69°44' E 030°06'0 0.0
2017-Oct-10 00:00N 69°44' E 030°06'0 0.0
2017-Oct-09 23:30N 69°44' E 030°06'0 0.0
2017-Oct-09 23:01N 69°44' E 030°06'0 0.0
2017-Oct-09 22:31N 69°44' E 030°06'0 0.0
2017-Oct-09 22:00N 69°44' E 030°06'0 0.0
2017-Oct-09 21:30N 69°44' E 030°06'0 0.0
2017-Oct-09 21:00N 69°44' E 030°06'0 0.0
2017-Oct-09 20:30N 69°44' E 030°06'0 0.0
2017-Oct-09 20:00N 69°44' E 030°06'1 1.6
2017-Oct-09 19:30N 69°45' E 030°06'4 8.3
2017-Oct-09 19:00N 69°49' E 030°06'4 7.6
2017-Oct-09 18:29N 69°52' E 030°01'4 8.0
2017-Oct-09 18:00N 69°56' E 029°55'4 8.4
2017-Oct-09 17:30N 69°58' E 029°45'4 8.7
2017-Oct-09 17:00N 70°00' E 029°34'5 8.7
2017-Oct-09 16:28N 70°02' E 029°21'1 0.5
2017-Oct-09 14:18N 70°02' E 029°18'3 8.1
2017-Oct-09 14:00N 70°01' E 029°26'5 9.9
2017-Oct-09 13:30N 69°59' E 029°39'510.0
2017-Oct-09 13:00N 69°57' E 029°51'5 9.5
2017-Oct-09 12:30N 69°53' E 029°60'5 9.4
2017-Oct-09 12:01N 69°49' E 030°07'5 9.3
2017-Oct-09 11:30N 69°44' E 030°06'1 1.7
2017-Oct-09 11:00N 69°44' E 030°04'1 1.5
2017-Oct-09 10:30N 69°44' E 030°06'0 0.0
2017-Oct-09 10:00N 69°44' E 030°06'0 0.0
2017-Oct-09 09:30N 69°44' E 030°06'0 0.0
2017-Oct-09 09:00N 69°44' E 030°06'0 0.0
2017-Oct-09 08:30N 69°44' E 030°06'0 0.0
2017-Oct-09 08:00N 69°44' E 030°06'0 0.0
2017-Oct-09 07:31N 69°44' E 030°06'0 0.0
2017-Oct-09 07:00N 69°44' E 030°06'0 0.0
2017-Oct-09 06:30N 69°44' E 030°06'0 0.0
2017-Oct-09 06:00N 69°44' E 030°06'0 0.0
2017-Oct-09 05:30N 69°44' E 030°06'0 0.0
2017-Oct-09 05:00N 69°44' E 030°06'0 0.0
2017-Oct-09 04:30N 69°44' E 030°06'0 0.0
2017-Oct-09 04:00N 69°44' E 030°06'0 0.0
2017-Oct-09 03:30N 69°44' E 030°06'0 0.0
2017-Oct-09 03:01N 69°44' E 030°06'0 0.0
2017-Oct-09 02:30N 69°44' E 030°06'0 0.0
2017-Oct-09 02:00N 69°44' E 030°06'0 0.0
2017-Oct-09 01:30N 69°44' E 030°06'0 0.0
2017-Oct-09 01:00N 69°44' E 030°06'0 0.0
2017-Oct-09 00:30N 69°44' E 030°06'0 0.0
2017-Oct-09 00:00N 69°44' E 030°06'0 0.0
2017-Oct-08 23:30N 69°44' E 030°06'3 6.7
2017-Oct-08 23:00N 69°47' E 030°06'4 8.4
2017-Oct-08 22:30N 69°51' E 030°08'4 8.0
2017-Oct-08 22:00N 69°55' E 030°14'4 8.7
2017-Oct-08 21:30N 69°58' E 030°21'4 8.9
2017-Oct-08 21:01N 70°02' E 030°29'4 8.8
2017-Oct-08 20:30N 70°05' E 030°38'4 8.8
2017-Oct-08 20:00N 70°09' E 030°46'4 8.9
2017-Oct-08 19:30N 70°12' E 030°54'4 8.9
2017-Oct-08 19:00N 70°16' E 031°02'4 8.5
2017-Oct-08 18:31N 70°20' E 031°05'5 9.3
2017-Oct-08 18:00N 70°24' E 031°02'4 9.0
2017-Oct-08 17:30N 70°28' E 030°55'5 9.0
2017-Oct-08 17:00N 70°31' E 030°45'4 9.2
2017-Oct-08 16:30N 70°34' E 030°34'2 0.6
2017-Oct-08 13:16N 70°34' E 030°28'3 9.9
2017-Oct-08 13:00N 70°34' E 030°36'5 9.6
2017-Oct-08 12:31N 70°32' E 030°49'5 9.9
2017-Oct-08 12:01N 70°28' E 030°58'5 9.8
2017-Oct-08 11:30N 70°23' E 031°03'510.3
2017-Oct-08 11:00N 70°18' E 031°05'5 9.6
2017-Oct-08 10:30N 70°14' E 030°58'5 9.7
2017-Oct-08 10:00N 70°10' E 030°49'5 9.9
2017-Oct-08 09:30N 70°06' E 030°40'5 9.9
2017-Oct-08 09:00N 70°02' E 030°31'5 9.9
2017-Oct-08 08:30N 69°59' E 030°23'510.0
2017-Oct-08 08:00N 69°55' E 030°13'510.1
2017-Oct-08 07:30N 69°50' E 030°07'510.4
2017-Oct-08 07:00N 69°45' E 030°05'2 3.1
2017-Oct-08 06:30N 69°44' E 030°02'0 0.0
2017-Oct-08 06:00N 69°44' E 030°02'0 0.0
2017-Oct-08 05:30N 69°44' E 030°02'0 0.0
2017-Oct-08 05:00N 69°44' E 030°02'0 0.0
2017-Oct-08 04:30N 69°44' E 030°02'0 0.0
2017-Oct-08 04:00N 69°44' E 030°02'  

Dump ship's entire track history